Time;durP1;ratioP1;P1;durP2;ratioP2;P2;SDS_P1;SDS_P2;PMS_P1;PMS_P2;Temp;Humidity;BMP_temperature;BMP_pressure;BME280_temperature;BME280_humidity;BME280_pressure;Samples;Min_cycle;Max_cycle;Signal;HPM_P1;HPM_P2
2021/12/05 00:17:09;;;;;;;4.88;1.10;;;7.60;68.40;;;;;;5098143;28;20177;-53
2021/12/05 00:20:11;;;;;;;6.80;1.48;;;7.60;68.00;;;;;;5097897;28;20028;-53
2021/12/05 00:22:41;;;;;;;4.85;1.05;;;7.50;68.30;;;;;;5097754;28;20063;-47
2021/12/05 00:25:11;;;;;;;6.72;1.10;;;7.50;68.20;;;;;;5097808;28;20035;-50
2021/12/05 00:27:44;;;;;;;7.00;1.27;;;7.40;68.30;;;;;;5097408;28;20056;-54
2021/12/05 00:46:27;;;;;;;4.60;1.27;;;7.00;67.70;;;;;;5097673;28;20039;-50
2021/12/05 01:08:12;;;;;;;5.32;1.00;;;6.90;68.10;;;;;;5101986;28;20081;-52
2021/12/05 01:15:58;;;;;;;6.72;1.35;;;7.00;68.40;;;;;;5101296;28;20024;-52
2021/12/05 01:18:25;;;;;;;6.32;1.73;;;7.00;68.40;;;;;;5101396;28;20028;-53
2021/12/05 01:20:56;;;;;;;9.77;1.90;;;7.10;68.40;;;;;;5101553;28;20387;-50
2021/12/05 01:33:52;;;;;;;5.70;1.42;;;6.90;68.30;;;;;;5101457;28;20107;-50
2021/12/05 01:53:49;;;;;;;4.22;1.10;;;6.90;68.70;;;;;;5101138;28;20102;-47
2021/12/05 02:01:18;;;;;;;7.40;1.02;;;6.70;68.50;;;;;;5100698;28;20073;-50
2021/12/05 02:39:08;;;;;;;7.47;1.70;;;6.70;68.90;;;;;;5100317;28;20078;-54
2021/12/05 02:41:41;;;;;;;7.10;2.92;;;6.70;68.90;;;;;;5099914;28;20103;-53
2021/12/05 02:46:47;;;;;;;11.40;2.15;;;6.80;69.20;;;;;;5099685;28;20426;-49
2021/12/05 02:49:16;;;;;;;12.43;2.35;;;6.80;69.30;;;;;;5099781;28;20031;-50
2021/12/05 02:51:51;;;;;;;6.30;1.30;;;6.80;69.80;;;;;;5099786;28;20547;-50
2021/12/05 02:54:19;;;;;;;11.73;1.67;;;6.70;69.80;;;;;;5099715;28;20032;-53
2021/12/05 02:56:49;;;;;;;6.95;1.30;;;6.70;69.80;;;;;;5099531;28;20024;-51
2021/12/05 02:59:38;;;;;;;8.35;1.70;;;6.70;69.50;;;;;;5099637;28;20415;-51
2021/12/05 03:02:13;;;;;;;9.52;1.85;;;6.70;69.80;;;;;;5099718;28;20031;-53
2021/12/05 03:04:45;;;;;;;4.93;1.10;;;6.70;69.30;;;;;;5099493;28;20046;-52
2021/12/05 03:07:11;;;;;;;7.88;2.25;;;6.70;69.50;;;;;;5099344;28;20110;-53
2021/12/05 03:09:41;;;;;;;6.60;1.40;;;6.70;69.60;;;;;;5099460;28;20038;-50
2021/12/05 03:12:10;;;;;;;6.05;1.85;;;6.60;69.50;;;;;;5099509;28;20031;-52
2021/12/05 03:14:36;;;;;;;7.53;1.33;;;6.60;69.20;;;;;;5099085;28;20032;-53
2021/12/05 03:17:02;;;;;;;10.35;1.70;;;6.50;69.30;;;;;;5099142;28;20024;-52
2021/12/05 03:19:28;;;;;;;6.28;1.60;;;6.40;69.40;;;;;;5099292;28;20446;-52
2021/12/05 03:21:54;;;;;;;10.43;3.67;;;6.40;69.60;;;;;;5099118;28;20027;-54
2021/12/05 03:24:22;;;;;;;10.52;2.63;;;6.30;69.80;;;;;;5099061;28;20055;-50
2021/12/05 03:26:52;;;;;;;9.20;1.88;;;6.30;70.00;;;;;;5098926;28;20046;-54
2021/12/05 03:29:20;;;;;;;6.03;1.25;;;6.30;69.90;;;;;;5099069;28;20107;-51
2021/12/05 03:31:47;;;;;;;7.25;1.70;;;6.30;70.00;;;;;;5098956;28;20016;-53
2021/12/05 03:34:16;;;;;;;6.18;1.42;;;6.30;69.90;;;;;;5099065;28;20032;-52
2021/12/05 03:36:45;;;;;;;8.45;1.30;;;6.30;70.30;;;;;;5098685;28;20032;-51
2021/12/05 03:39:11;;;;;;;7.18;2.08;;;6.40;70.00;;;;;;5099042;28;20048;-49
2021/12/05 03:41:39;;;;;;;8.70;1.50;;;6.40;70.40;;;;;;5098766;28;20023;-50
2021/12/05 03:44:07;;;;;;;5.65;1.20;;;6.40;70.10;;;;;;5098922;28;20398;-49
2021/12/05 03:46:34;;;;;;;5.63;1.23;;;6.50;70.00;;;;;;5098864;28;20046;-48
2021/12/05 03:49:05;;;;;;;2.95;0.82;;;6.50;69.50;;;;;;5098690;28;20035;-50
2021/12/05 03:51:32;;;;;;;9.00;1.45;;;6.50;69.40;;;;;;5098861;28;20385;-53
2021/12/05 03:53:59;;;;;;;6.40;1.48;;;6.50;69.70;;;;;;5098559;28;20031;-50
2021/12/05 03:56:24;;;;;;;8.25;1.13;;;6.50;69.80;;;;;;5098331;28;20162;-52
2021/12/05 03:58:51;;;;;;;4.82;1.05;;;6.50;69.60;;;;;;5098626;28;20051;-51
2021/12/05 04:01:18;;;;;;;8.85;1.33;;;6.50;69.40;;;;;;5098360;28;20110;-53
2021/12/05 04:03:47;;;;;;;4.40;1.75;;;6.40;69.50;;;;;;5098889;28;20028;-53
2021/12/05 04:06:16;;;;;;;5.72;1.30;;;6.40;69.60;;;;;;5098312;28;20046;-49
2021/12/05 04:08:43;;;;;;;3.53;0.85;;;6.40;69.10;;;;;;5098298;28;20030;-53
2021/12/05 04:11:13;;;;;;;5.60;1.20;;;6.40;69.70;;;;;;5098255;28;20020;-49
2021/12/05 04:13:39;;;;;;;4.85;1.20;;;6.40;69.50;;;;;;5096747;28;20488;-50
2021/12/05 04:16:07;;;;;;;3.08;1.10;;;6.30;69.50;;;;;;5098037;28;20064;-52
2021/12/05 04:18:33;;;;;;;4.72;1.35;;;6.30;69.50;;;;;;5098325;28;20425;-51
2021/12/05 04:21:00;;;;;;;5.03;0.93;;;6.30;69.20;;;;;;5098092;28;20063;-51
2021/12/05 04:23:27;;;;;;;6.80;1.10;;;6.30;69.50;;;;;;5098097;28;20023;-52
2021/12/05 04:25:53;;;;;;;3.72;1.20;;;6.20;69.40;;;;;;5098097;28;20096;-50
2021/12/05 04:28:20;;;;;;;6.90;1.30;;;6.20;69.60;;;;;;5097847;28;20032;-52
2021/12/05 04:30:47;;;;;;;4.53;1.02;;;6.20;69.70;;;;;;5098373;28;20103;-52
2021/12/05 04:33:13;;;;;;;5.82;1.38;;;6.30;69.30;;;;;;5098116;28;20027;-49
2021/12/05 04:35:39;;;;;;;2.42;0.90;;;6.30;69.20;;;;;;5097297;28;20046;-50
2021/12/05 04:38:05;;;;;;;4.22;1.10;;;6.30;69.50;;;;;;5097883;28;20047;-52
2021/12/05 04:40:33;;;;;;;7.53;1.40;;;6.20;69.10;;;;;;5098027;28;20491;-52
2021/12/05 04:43:00;;;;;;;5.05;1.20;;;6.20;69.20;;;;;;5097766;28;20028;-54
2021/12/05 04:45:29;;;;;;;7.90;1.30;;;6.10;69.40;;;;;;5098120;28;20012;-49
2021/12/05 04:47:57;;;;;;;6.38;1.35;;;6.00;69.30;;;;;;5097768;28;20024;-51
2021/12/05 04:50:24;;;;;;;7.18;1.30;;;6.00;69.40;;;;;;5097752;28;20033;-49
2021/12/05 04:52:51;;;;;;;7.70;1.45;;;6.00;69.20;;;;;;5097977;28;20051;-53
2021/12/05 04:55:17;;;;;;;5.13;1.52;;;6.00;69.70;;;;;;5097682;28;20032;-51
2021/12/05 04:57:44;;;;;;;6.15;1.70;;;5.90;69.50;;;;;;5098483;28;20051;-51
2021/12/05 05:00:15;;;;;;;5.00;1.20;;;5.90;69.80;;;;;;5098018;28;20027;-51
2021/12/05 05:02:41;;;;;;;7.90;1.30;;;5.90;69.70;;;;;;5097689;28;20079;-51
2021/12/05 05:05:09;;;;;;;6.45;1.33;;;5.80;69.30;;;;;;5097807;28;20020;-53
2021/12/05 05:07:37;;;;;;;7.57;1.52;;;5.80;69.80;;;;;;5097843;28;20039;-49
2021/12/05 05:10:10;;;;;;;7.85;1.77;;;5.70;70.00;;;;;;5097645;28;20097;-51
2021/12/05 05:12:37;;;;;;;8.93;1.70;;;5.70;69.90;;;;;;5097618;28;20037;-52
2021/12/05 05:15:03;;;;;;;6.03;1.70;;;5.70;69.80;;;;;;5097574;28;20073;-52
2021/12/05 05:17:29;;;;;;;11.07;1.63;;;5.70;70.00;;;;;;5097664;28;20464;-50
2021/12/05 05:20:00;;;;;;;5.57;1.67;;;5.70;70.00;;;;;;5097320;28;20023;-48
2021/12/05 05:28:22;;;;;;;7.22;1.80;;;5.70;69.70;;;;;;5059990;28;20492;-49
2021/12/05 05:42:24;;;;;;;11.02;1.60;;;6.00;70.30;;;;;;5073652;28;20429;-50
2021/12/05 05:49:59;;;;;;;12.85;1.98;;;6.20;69.90;;;;;;5101582;28;20023;-52
2021/12/05 05:52:26;;;;;;;11.18;3.00;;;6.20;69.90;;;;;;5100923;28;20016;-50
2021/12/05 05:54:54;;;;;;;8.25;1.50;;;6.30;69.90;;;;;;5100844;28;20032;-51
2021/12/05 05:57:30;;;;;;;9.95;1.70;;;6.20;70.10;;;;;;5100511;28;20032;-52
2021/12/05 06:00:05;;;;;;;10.35;1.45;;;6.20;70.30;;;;;;5100171;28;20032;-51
2021/12/05 06:05:16;;;;;;;6.80;1.60;;;6.30;69.80;;;;;;5100842;28;20103;-51
2021/12/05 06:07:44;;;;;;;7.35;1.50;;;6.20;69.90;;;;;;5101024;28;20086;-49
2021/12/05 06:10:14;;;;;;;8.90;1.40;;;6.10;69.80;;;;;;5100325;28;20054;-50
2021/12/05 06:12:40;;;;;;;9.52;1.85;;;6.10;69.80;;;;;;5099192;28;20054;-51
2021/12/05 06:15:09;;;;;;;10.13;1.83;;;6.00;70.20;;;;;;5100446;28;20027;-50
2021/12/05 06:17:35;;;;;;;9.48;2.08;;;6.00;69.90;;;;;;5100399;28;20387;-48
2021/12/05 06:20:05;;;;;;;7.57;1.55;;;5.90;70.10;;;;;;5100599;28;20104;-53
2021/12/05 06:22:30;;;;;;;7.20;1.60;;;5.90;69.80;;;;;;5100647;28;20016;-47
2021/12/05 06:24:56;;;;;;;10.95;1.85;;;5.90;69.80;;;;;;5100322;28;20483;-53
2021/12/05 06:27:22;;;;;;;12.98;2.78;;;5.80;70.30;;;;;;5100057;28;20095;-51
2021/12/05 06:29:55;;;;;;;10.13;1.90;;;5.80;70.20;;;;;;5100066;28;20492;-50
2021/12/05 06:38:13;;;;;;;14.32;2.17;;;5.80;70.00;;;;;;5100252;28;20533;-51
2021/12/05 06:46:00;;;;;;;7.78;1.80;;;5.70;70.10;;;;;;5099925;28;20020;-50
2021/12/05 06:46:05;;;;;;;15.65;2.83;;;5.70;70.20;;;;;;5099728;28;20043;-53
2021/12/05 06:48:31;;;;;;;11.73;2.00;;;5.70;70.20;;;;;;5100202;28;20028;-51
2021/12/05 06:50:57;;;;;;;12.15;2.22;;;5.70;70.10;;;;;;5099975;28;20024;-51
2021/12/05 06:53:23;;;;;;;9.73;1.70;;;5.70;70.30;;;;;;5099937;28;20028;-49
2021/12/05 06:55:49;;;;;;;11.15;1.80;;;5.70;70.20;;;;;;5099675;28;20433;-52
2021/12/05 06:58:15;;;;;;;8.88;1.70;;;5.60;70.30;;;;;;5099570;28;20016;-51
2021/12/05 07:00:41;;;;;;;11.57;1.98;;;5.60;70.00;;;;;;5098161;28;20377;-50
2021/12/05 07:03:08;;;;;;;8.98;1.77;;;5.60;70.30;;;;;;5099313;28;20028;-50
2021/12/05 07:08:00;;;;;;;10.93;1.92;;;5.60;70.10;;;;;;5099663;28;20031;-51
2021/12/05 07:10:27;;;;;;;12.60;2.08;;;5.60;70.80;;;;;;5099307;28;20031;-50
2021/12/05 07:26:30;;;;;;;9.10;1.60;;;5.60;71.10;;;;;;5099165;28;20047;-52
2021/12/05 07:42:41;;;;;;;10.65;2.45;;;5.70;71.30;;;;;;5098661;28;20031;-47
2021/12/05 07:45:16;;;;;;;19.92;2.45;;;5.70;71.00;;;;;;5098746;28;20016;-51
2021/12/05 07:47:46;;;;;;;10.68;2.60;;;5.70;70.90;;;;;;5099225;28;20115;-51
2021/12/05 07:50:13;;;;;;;8.25;1.75;;;5.80;71.10;;;;;;5098867;28;20479;-50
2021/12/05 07:52:43;;;;;;;11.20;2.60;;;5.80;71.00;;;;;;5098530;28;20024;-50
2021/12/05 07:55:26;;;;;;;10.15;1.70;;;5.90;70.80;;;;;;5098663;28;20044;-48
2021/12/05 07:58:25;;;;;;;15.85;2.90;;;6.00;70.40;;;;;;5097967;28;20027;-52
2021/12/05 08:01:03;;;;;;;8.73;2.40;;;6.00;70.40;;;;;;5098449;28;20028;-51
2021/12/05 08:16:53;;;;;;;6.28;2.10;;;6.30;70.00;;;;;;5096129;28;20063;-49
2021/12/05 08:19:19;;;;;;;7.82;1.63;;;6.30;70.10;;;;;;5097279;28;20028;-49
2021/12/05 08:21:46;;;;;;;12.65;2.30;;;6.30;70.10;;;;;;5097448;28;20103;-50
2021/12/05 08:24:12;;;;;;;10.13;1.77;;;6.40;70.10;;;;;;5096868;28;20044;-48
2021/12/05 08:26:39;;;;;;;9.88;1.80;;;6.40;70.40;;;;;;5096312;28;20059;-50
2021/12/05 08:29:10;;;;;;;6.07;1.83;;;6.40;70.10;;;;;;5097658;28;20032;-52
2021/12/05 09:20:45;;;;;;;11.57;1.73;;;10.40;66.00;;;;;;5097531;28;20062;-55
2021/12/05 09:23:37;;;;;;;11.35;1.92;;;10.70;65.70;;;;;;5099427;28;20020;-54
2021/12/05 09:28:52;;;;;;;15.27;3.08;;;11.40;64.20;;;;;;5101314;28;20028;-52
2021/12/05 10:01:28;;;;;;;9.50;2.35;;;10.50;64.00;;;;;;5100894;28;20107;-55
2021/12/05 10:38:23;;;;;;;9.57;3.83;;;17.10;51.10;;;;;;5099990;28;20028;-56
2021/12/05 10:41:02;;;;;;;8.68;2.38;;;17.30;49.10;;;;;;5099427;28;20032;-54
2021/12/05 10:43:31;;;;;;;7.82;1.80;;;17.60;48.40;;;;;;5099901;28;20020;-56
2021/12/05 10:46:08;;;;;;;15.23;6.45;;;18.00;49.90;;;;;;5099483;28;20141;-56
2021/12/05 10:48:44;;;;;;;10.20;2.67;;;18.10;51.30;;;;;;5099319;28;20040;-56
2021/12/05 10:51:15;;;;;;;8.05;1.95;;;18.00;47.90;;;;;;5099750;28;20032;-56
2021/12/05 10:53:49;;;;;;;6.05;1.73;;;18.00;49.80;;;;;;5099468;28;20032;-56
2021/12/05 10:56:28;;;;;;;9.85;5.85;;;17.50;45.80;;;;;;5099513;28;20477;-55
2021/12/05 10:59:08;;;;;;;7.50;3.33;;;17.00;49.00;;;;;;5099386;28;20020;-55
2021/12/05 11:01:42;;;;;;;10.07;3.80;;;16.60;50.50;;;;;;5098546;28;20044;-54
2021/12/05 11:04:14;;;;;;;15.32;6.00;;;17.00;50.60;;;;;;5099306;28;20031;-55
2021/12/05 11:06:42;;;;;;;12.93;3.92;;;17.30;48.60;;;;;;5099165;28;20024;-56
2021/12/05 11:09:13;;;;;;;11.35;3.03;;;17.80;50.00;;;;;;5099009;28;20020;-55
2021/12/05 11:11:43;;;;;;;11.73;6.88;;;18.30;46.70;;;;;;5099061;28;20028;-56
2021/12/05 11:14:16;;;;;;;9.02;2.92;;;19.00;48.80;;;;;;5099683;28;20028;-55
2021/12/05 11:16:46;;;;;;;30.55;18.30;;;19.70;47.50;;;;;;5098823;28;20032;-55
2021/12/05 11:19:21;;;;;;;15.02;6.65;;;20.00;46.80;;;;;;5098816;28;20103;-56
2021/12/05 11:21:53;;;;;;;13.25;5.07;;;20.30;42.80;;;;;;5099020;28;20082;-54
2021/12/05 11:24:31;;;;;;;15.23;8.60;;;20.30;45.20;;;;;;5098852;28;20514;-55
2021/12/05 11:27:25;;;;;;;12.05;3.65;;;20.40;42.30;;;;;;5098423;28;20056;-54
2021/12/05 11:29:59;;;;;;;13.93;4.68;;;20.40;41.60;;;;;;5098785;28;20475;-56
2021/12/05 11:32:40;;;;;;;7.20;3.40;;;20.50;43.80;;;;;;5099041;28;20107;-56
2021/12/05 11:35:25;;;;;;;10.32;2.50;;;20.90;45.20;;;;;;5098686;28;20483;-56
2021/12/05 11:37:54;;;;;;;11.38;3.55;;;20.90;43.30;;;;;;5098206;28;20024;-56
2021/12/05 11:40:23;;;;;;;7.97;1.80;;;21.00;42.20;;;;;;5098181;28;20024;-56
2021/12/05 11:42:55;;;;;;;6.97;1.73;;;21.30;42.10;;;;;;5098319;28;20023;-56
2021/12/05 11:45:21;;;;;;;11.52;5.28;;;21.30;39.00;;;;;;5097430;28;20056;-56
2021/12/05 11:47:47;;;;;;;11.27;2.17;;;21.00;38.90;;;;;;5096920;28;20074;-56
2021/12/05 11:50:18;;;;;;;8.90;2.33;;;21.00;38.60;;;;;;5098119;28;20118;-55
2021/12/05 11:52:46;;;;;;;10.27;2.42;;;21.20;40.60;;;;;;5098233;28;20063;-55
2021/12/05 11:55:24;;;;;;;9.60;2.28;;;21.40;39.90;;;;;;5098116;28;20027;-57
2021/12/05 11:57:51;;;;;;;8.45;2.58;;;21.50;39.80;;;;;;5098080;28;20032;-54
2021/12/05 12:00:18;;;;;;;11.32;3.78;;;21.70;39.10;;;;;;5098266;28;20027;-56
2021/12/05 12:02:46;;;;;;;12.20;4.70;;;21.90;41.40;;;;;;5097769;28;20035;-56
2021/12/05 12:05:21;;;;;;;13.00;4.80;;;22.00;38.00;;;;;;5098774;28;20460;-56
2021/12/05 12:07:52;;;;;;;10.13;3.70;;;22.10;40.80;;;;;;5098321;28;20467;-57
2021/12/05 12:10:32;;;;;;;9.50;3.70;;;22.30;40.70;;;;;;5098136;28;20024;-56
2021/12/05 12:13:19;;;;;;;8.57;2.65;;;22.50;40.20;;;;;;5097755;28;20043;-56
2021/12/05 12:15:54;;;;;;;12.43;2.78;;;22.90;39.20;;;;;;5097774;28;20486;-56
2021/12/05 12:18:29;;;;;;;13.45;5.20;;;22.80;37.50;;;;;;5097977;28;20073;-56
2021/12/05 12:21:02;;;;;;;8.90;2.45;;;22.70;38.60;;;;;;5097483;28;20012;-55
2021/12/05 12:23:29;;;;;;;14.00;8.93;;;22.40;36.20;;;;;;5097499;28;20098;-56
2021/12/05 12:25:58;;;;;;;12.60;5.30;;;22.40;38.60;;;;;;5097298;28;20028;-57
2021/12/05 12:28:25;;;;;;;12.48;5.22;;;22.70;37.00;;;;;;5096372;28;20023;-56
2021/12/05 12:30:58;;;;;;;10.52;2.60;;;23.20;37.50;;;;;;5097510;28;20054;-56
2021/12/05 12:33:32;;;;;;;7.53;2.13;;;23.20;36.00;;;;;;5097797;28;20479;-56
2021/12/05 12:35:58;;;;;;;;;;;22.80;36.10;;;;;;5098099;28;20551;-54
2021/12/05 12:38:28;;;;;;;10.95;2.42;;;22.40;37.10;;;;;;5097618;28;19935;-56
2021/12/05 12:40:58;;;;;;;9.75;1.65;;;21.70;37.90;;;;;;5097458;28;20391;-57
2021/12/05 12:43:44;;;;;;;10.10;1.85;;;21.60;36.90;;;;;;5097269;28;20028;-56
2021/12/05 12:46:24;;;;;;;31.33;17.10;;;22.00;39.50;;;;;;5097521;28;20028;-56
2021/12/05 12:48:58;;;;;;;29.27;12.05;;;22.30;36.40;;;;;;5097327;28;20454;-56
2021/12/05 12:51:35;;;;;;;126.28;49.63;;;22.40;37.10;;;;;;5097301;28;20058;-56
2021/12/05 12:54:12;;;;;;;57.47;23.70;;;22.80;40.50;;;;;;5097204;28;20115;-54
2021/12/05 12:56:40;;;;;;;21.85;8.13;;;23.00;35.30;;;;;;5097513;28;20012;-56
2021/12/05 12:59:11;;;;;;;14.77;5.13;;;23.30;34.90;;;;;;5101153;28;20028;-56
2021/12/05 13:04:32;;;;;;;12.18;4.60;;;23.00;33.50;;;;;;5101313;28;20039;-55
2021/12/05 13:07:24;;;;;;;13.27;6.00;;;22.70;33.30;;;;;;5100493;28;20437;-56
2021/12/05 13:12:34;;;;;;;15.07;5.95;;;22.00;34.30;;;;;;5101101;28;20027;-56
2021/12/05 13:15:26;;;;;;;11.07;2.38;;;21.50;36.70;;;;;;5101083;28;20115;-56
2021/12/05 13:17:57;;;;;;;11.65;4.82;;;21.00;35.50;;;;;;5100964;28;20024;-56
2021/12/05 13:20:25;;;;;;;9.45;2.70;;;20.30;35.90;;;;;;5100865;28;20108;-53
2021/12/05 13:23:04;;;;;;;11.38;2.80;;;19.60;37.00;;;;;;5100926;28;20016;-56
2021/12/05 13:25:35;;;;;;;10.07;3.42;;;18.90;38.70;;;;;;5101179;28;20028;-55
2021/12/05 13:28:31;;;;;;;9.82;3.75;;;18.10;40.10;;;;;;5100556;28;20043;-56
2021/12/05 13:30:58;;;;;;;14.07;3.45;;;17.80;40.90;;;;;;5101033;28;20547;-56
2021/12/05 13:33:28;;;;;;;10.48;3.83;;;18.30;41.10;;;;;;5100775;28;20031;-56
2021/12/05 13:35:58;;;;;;;14.82;3.13;;;18.60;40.30;;;;;;5100970;28;20099;-54
2021/12/05 13:38:41;;;;;;;10.00;2.97;;;19.20;39.60;;;;;;5100411;28;20107;-55
2021/12/05 13:41:22;;;;;;;11.43;2.30;;;19.80;36.60;;;;;;5100803;28;20413;-56
2021/12/05 13:44:13;;;;;;;13.45;3.47;;;20.00;36.70;;;;;;5100882;28;20020;-56
2021/12/05 13:46:42;;;;;;;14.80;4.30;;;19.50;35.90;;;;;;5098133;28;20036;-55
2021/12/05 13:49:35;;;;;;;10.10;3.95;;;18.90;37.20;;;;;;5100498;28;20020;-55
2021/12/05 13:52:30;;;;;;;26.33;19.15;;;18.20;38.20;;;;;;5100612;28;20032;-55
2021/12/05 13:55:34;;;;;;;13.88;9.25;;;17.30;39.40;;;;;;5100264;28;20085;-53
2021/12/05 13:58:24;;;;;;;14.85;7.80;;;16.80;39.90;;;;;;5100493;28;20099;-54
2021/12/05 14:00:53;;;;;;;20.48;12.05;;;16.20;40.90;;;;;;5100258;28;20048;-55
2021/12/05 14:04:23;;;;;;;13.30;4.80;;;16.20;42.00;;;;;;5100266;28;20016;-54
2021/12/05 14:07:04;;;;;;;11.50;3.40;;;16.70;41.30;;;;;;5037868;28;20556;-56
2021/12/05 14:09:38;;;;;;;14.23;4.75;;;17.40;39.10;;;;;;5036546;28;20438;-55
2021/12/05 14:12:27;;;;;;;11.38;3.50;;;17.50;40.10;;;;;;5088332;28;20042;-53
2021/12/05 14:15:00;;;;;;;9.95;2.80;;;17.30;40.40;;;;;;5099991;28;20024;-55
2021/12/05 14:17:37;;;;;;;13.50;7.85;;;17.00;39.90;;;;;;5099632;28;20028;-55
2021/12/05 14:20:12;;;;;;;18.63;6.65;;;16.90;40.60;;;;;;5099890;28;20028;-51
2021/12/05 14:22:41;;;;;;;12.57;5.53;;;16.60;41.40;;;;;;5100234;28;20024;-56
2021/12/05 14:25:19;;;;;;;11.50;3.30;;;16.30;41.50;;;;;;5099792;28;20476;-54
2021/12/05 14:27:50;;;;;;;12.45;5.93;;;16.00;42.80;;;;;;5099727;28;20047;-55
2021/12/05 14:30:21;;;;;;;17.15;7.07;;;15.70;43.10;;;;;;5099791;28;20027;-55
2021/12/05 14:32:50;;;;;;;12.50;3.83;;;15.50;43.40;;;;;;5100000;28;20047;-55
2021/12/05 14:35:24;;;;;;;12.32;4.32;;;15.00;43.90;;;;;;5099574;28;20080;-55
2021/12/05 14:37:53;;;;;;;11.57;3.78;;;14.70;45.30;;;;;;5099897;28;20028;-55
2021/12/05 14:40:22;;;;;;;12.35;5.03;;;14.30;45.50;;;;;;5099506;28;20016;-55
2021/12/05 14:42:50;;;;;;;11.77;3.95;;;14.00;45.90;;;;;;5099980;28;20487;-53
2021/12/05 14:45:22;;;;;;;14.35;4.07;;;13.70;46.40;;;;;;5099483;28;20514;-55
2021/12/05 14:47:49;;;;;;;14.65;3.92;;;13.30;47.30;;;;;;5099591;28;20032;-53
2021/12/05 14:50:23;;;;;;;14.43;4.00;;;13.10;47.90;;;;;;5099346;28;20059;-55
2021/12/05 14:52:52;;;;;;;31.27;13.65;;;13.00;48.80;;;;;;5099057;28;20080;-55
2021/12/05 14:55:20;;;;;;;32.92;18.98;;;12.80;48.90;;;;;;5098943;28;20055;-54
2021/12/05 14:57:51;;;;;;;36.67;20.25;;;12.70;49.10;;;;;;5099018;28;20034;-56
2021/12/05 15:00:27;;;;;;;53.85;36.75;;;12.60;49.30;;;;;;5099129;28;20024;-56
2021/12/05 15:03:05;;;;;;;32.35;21.13;;;12.50;49.60;;;;;;5098796;28;20039;-52
2021/12/05 15:05:33;;;;;;;21.92;11.45;;;12.50;50.70;;;;;;5098939;28;20016;-52
2021/12/05 15:08:05;;;;;;;16.45;9.63;;;12.50;50.40;;;;;;5098884;28;20028;-56
2021/12/05 15:10:32;;;;;;;23.67;13.43;;;12.50;50.10;;;;;;5098931;28;20024;-52
2021/12/05 15:12:58;;;;;;;16.90;6.95;;;12.50;50.80;;;;;;5098915;28;20479;-55
2021/12/05 15:15:25;;;;;;;19.73;9.85;;;12.40;50.60;;;;;;5098676;28;20050;-53
2021/12/05 15:17:53;;;;;;;34.88;22.27;;;12.20;50.60;;;;;;5098494;28;20020;-53
2021/12/05 15:20:23;;;;;;;22.40;11.88;;;12.10;51.80;;;;;;5098676;28;20498;-51
2021/12/05 15:22:58;;;;;;;35.13;23.42;;;12.00;51.20;;;;;;5098718;28;20031;-52
2021/12/05 15:25:27;;;;;;;16.67;6.43;;;12.00;51.90;;;;;;5099087;28;20016;-55
2021/12/05 15:27:54;;;;;;;23.95;12.07;;;11.90;51.60;;;;;;5097988;28;20052;-53
2021/12/05 15:30:24;;;;;;;24.60;13.55;;;11.80;51.70;;;;;;5098424;28;20016;-49
2021/12/05 15:32:55;;;;;;;26.02;13.68;;;11.70;52.60;;;;;;5098685;28;20024;-49
2021/12/05 15:35:22;;;;;;;12.95;4.55;;;11.70;53.00;;;;;;5098383;28;20028;-55
2021/12/05 15:37:57;;;;;;;11.75;3.13;;;11.60;52.80;;;;;;5097187;28;20060;-54
2021/12/05 15:40:25;;;;;;;14.77;7.20;;;11.60;54.10;;;;;;5098715;28;20020;-53
2021/12/05 15:42:51;;;;;;;16.73;5.50;;;11.50;52.80;;;;;;5098114;28;20036;-54
2021/12/05 15:45:19;;;;;;;11.70;4.03;;;11.50;53.80;;;;;;5098156;28;20040;-47
2021/12/05 15:47:47;;;;;;;13.88;5.60;;;11.30;54.50;;;;;;5098070;28;20028;-54
2021/12/05 15:50:20;;;;;;;13.18;3.83;;;11.30;54.30;;;;;;5098060;28;20020;-52
2021/12/05 15:52:52;;;;;;;15.52;4.45;;;11.20;54.50;;;;;;5098272;28;20054;-53
2021/12/05 15:55:22;;;;;;;13.05;3.83;;;11.10;54.10;;;;;;5098192;28;20024;-48
2021/12/05 15:57:54;;;;;;;14.63;3.83;;;11.00;55.50;;;;;;5097759;28;20042;-50
2021/12/05 16:00:25;;;;;;;13.45;3.08;;;10.90;56.20;;;;;;5098159;28;20028;-53
2021/12/05 16:03:06;;;;;;;11.68;2.60;;;10.90;56.10;;;;;;5098142;28;20016;-51
2021/12/05 16:05:34;;;;;;;11.63;2.95;;;10.80;56.10;;;;;;5098148;28;20012;-54
2021/12/05 16:08:06;;;;;;;12.75;2.40;;;10.80;56.00;;;;;;5097482;28;20024;-51
2021/12/05 16:10:34;;;;;;;11.23;3.53;;;10.70;56.70;;;;;;5098010;28;20028;-52
2021/12/05 16:13:09;;;;;;;12.50;2.83;;;10.70;56.90;;;;;;5097865;28;20493;-49
2021/12/05 16:15:35;;;;;;;13.93;4.55;;;10.60;58.50;;;;;;5097403;28;20031;-54
2021/12/05 16:18:02;;;;;;;20.73;5.20;;;10.50;57.80;;;;;;5097858;28;20031;-50
2021/12/05 16:20:48;;;;;;;17.17;4.38;;;10.50;57.90;;;;;;5097679;28;20020;-49
2021/12/05 16:23:21;;;;;;;15.20;7.35;;;10.40;58.00;;;;;;5097842;28;20463;-47
2021/12/05 16:26:02;;;;;;;21.55;9.82;;;10.30;58.40;;;;;;5097550;28;20043;-50
2021/12/05 16:28:35;;;;;;;19.63;8.23;;;10.30;57.90;;;;;;5097852;28;20036;-52
2021/12/05 16:31:13;;;;;;;11.70;3.80;;;10.20;57.90;;;;;;5097293;28;20031;-50
2021/12/05 16:33:41;;;;;;;14.68;4.55;;;10.20;58.40;;;;;;5097753;28;20497;-50
2021/12/05 16:36:07;;;;;;;13.13;3.17;;;10.10;58.30;;;;;;5097730;28;20032;-50
2021/12/05 16:38:37;;;;;;;15.75;3.75;;;10.00;58.10;;;;;;5097841;28;20034;-51
2021/12/05 16:41:13;;;;;;;14.25;3.22;;;10.00;57.60;;;;;;5097445;28;20099;-49
2021/12/05 16:43:55;;;;;;;10.82;2.95;;;9.90;58.70;;;;;;5097448;28;20398;-52
2021/12/05 16:46:33;;;;;;;10.93;3.22;;;9.80;57.20;;;;;;5097600;28;20035;-50
2021/12/05 16:49:01;;;;;;;14.10;5.68;;;9.80;58.50;;;;;;5097054;28;20032;-52
2021/12/05 16:51:30;;;;;;;13.88;4.57;;;9.70;58.50;;;;;;5097325;28;20387;-50
2021/12/05 16:54:03;;;;;;;15.63;5.10;;;9.70;58.30;;;;;;5097403;28;20020;-52
2021/12/05 16:56:40;;;;;;;14.48;4.95;;;9.70;58.00;;;;;;5097221;28;20106;-50
2021/12/05 16:59:10;;;;;;;15.20;6.70;;;9.60;58.30;;;;;;5097252;28;20034;-50
2021/12/05 17:01:35;;;;;;;10.80;3.53;;;9.60;59.20;;;;;;5097233;28;20066;-53
2021/12/05 17:04:02;;;;;;;14.57;5.20;;;9.60;58.90;;;;;;5097215;28;20016;-51
2021/12/05 17:06:29;;;;;;;16.15;7.60;;;9.60;58.40;;;;;;5097234;28;20032;-51
2021/12/05 17:08:55;;;;;;;14.43;5.03;;;9.50;60.00;;;;;;5097065;28;20036;-51
2021/12/05 17:11:23;;;;;;;13.25;5.38;;;9.50;59.70;;;;;;5097152;28;20115;-48
2021/12/05 17:13:52;;;;;;;16.92;5.15;;;9.50;58.30;;;;;;5097280;28;20161;-50
2021/12/05 17:16:28;;;;;;;14.73;6.40;;;9.40;59.40;;;;;;5097032;28;20042;-50
2021/12/05 17:18:57;;;;;;;12.82;5.68;;;9.40;59.60;;;;;;5096675;28;20027;-51
2021/12/05 17:21:35;;;;;;;13.63;5.43;;;9.30;59.90;;;;;;5096881;28;20020;-51
2021/12/05 17:24:13;;;;;;;15.18;4.47;;;9.20;59.90;;;;;;5096904;28;20433;-49
2021/12/05 17:26:46;;;;;;;14.50;3.85;;;9.30;60.10;;;;;;5096937;28;20036;-49
2021/12/05 17:29:25;;;;;;;17.08;6.63;;;9.30;59.50;;;;;;5097065;28;20051;-51
2021/12/05 17:31:59;;;;;;;10.25;4.78;;;9.20;59.90;;;;;;5095611;28;20080;-50
2021/12/05 17:34:27;;;;;;;14.32;5.68;;;9.20;60.50;;;;;;5096949;28;20028;-49
2021/12/05 17:37:00;;;;;;;16.52;8.38;;;9.20;60.60;;;;;;5097131;28;20097;-50
2021/12/05 17:39:30;;;;;;;13.70;5.57;;;9.10;60.20;;;;;;5097104;28;20027;-50
2021/12/05 17:42:11;;;;;;;22.83;10.05;;;9.10;60.00;;;;;;5097127;28;20028;-48
2021/12/05 17:44:38;;;;;;;21.38;8.73;;;9.10;60.10;;;;;;5100400;28;20024;-51
2021/12/05 17:47:07;;;;;;;18.88;7.18;;;9.00;60.60;;;;;;5100628;28;20099;-48
2021/12/05 17:49:35;;;;;;;20.08;7.38;;;9.00;60.70;;;;;;5100761;28;20462;-53
2021/12/05 17:52:03;;;;;;;18.40;6.78;;;9.00;60.10;;;;;;5100583;28;20058;-52
2021/12/05 17:54:53;;;;;;;17.23;6.07;;;8.90;60.90;;;;;;5100376;28;20032;-52
2021/12/05 17:57:31;;;;;;;15.70;6.40;;;8.90;59.90;;;;;;5100560;28;20501;-51
2021/12/05 18:00:22;;;;;;;18.60;5.88;;;8.90;60.10;;;;;;5100184;28;20024;-49
2021/12/05 18:02:53;;;;;;;15.40;4.13;;;8.80;59.80;;;;;;5100100;28;20032;-49
2021/12/05 18:05:24;;;;;;;13.10;3.97;;;8.80;60.00;;;;;;5100335;28;20171;-50
2021/12/05 18:07:53;;;;;;;14.13;7.22;;;8.80;60.40;;;;;;5100138;28;20375;-50
2021/12/05 18:10:22;;;;;;;13.38;5.20;;;8.70;60.10;;;;;;5100501;28;20430;-52
2021/12/05 18:12:50;;;;;;;14.32;6.13;;;8.70;60.60;;;;;;5100536;28;20024;-50
2021/12/05 18:15:25;;;;;;;16.00;7.20;;;8.70;60.40;;;;;;5100108;28;20104;-52
2021/12/05 18:17:52;;;;;;;17.00;7.82;;;8.70;60.40;;;;;;5099956;28;20490;-49
2021/12/05 18:20:25;;;;;;;14.45;4.90;;;8.60;60.80;;;;;;5099964;28;20034;-52
2021/12/05 18:22:56;;;;;;;21.65;8.10;;;8.60;60.50;;;;;;5099646;28;20016;-50
2021/12/05 18:25:23;;;;;;;14.88;4.65;;;8.60;60.70;;;;;;5100137;28;20075;-49
2021/12/05 18:27:49;;;;;;;10.68;4.03;;;8.60;61.20;;;;;;5099534;28;20056;-49
2021/12/05 18:30:17;;;;;;;11.70;4.20;;;8.50;61.40;;;;;;5099822;28;20071;-51
2021/12/05 18:32:44;;;;;;;14.82;3.28;;;8.50;61.40;;;;;;5099910;28;20407;-48
2021/12/05 18:35:12;;;;;;;15.43;3.78;;;8.50;61.30;;;;;;5099951;28;20032;-53